Have a Safe July 4th! 

Flight Track Log - Related Links

Times and Time Zones

All times are in EDT time to prevent confusion due to time zone crossing. See the PDT4226 flight status page for this flight to view local times or setup timezone preferences in your user account.

Time Position Orientation Groundspeed Altitude Reporting Facility
EDT Latitude Longitude Course Direction KTS MPH feet Rate Location/Type
Fri 02:49:00 PM 41.9713 -75.9021 154° Southeast  Level Estimated
Fri 02:50:00 PM 41.9120 -75.8828 160° South  Level Estimated
Fri 02:51:00 PM 41.8527 -75.8636 159° South  Level Estimated
Fri 02:52:00 PM 41.7923 -75.8526 172° South  Level FlightAware Approximate
Fri 02:53:00 PM 41.7318 -75.8417 172° South  Level FlightAware Approximate
Fri 02:54:00 PM 41.6726 -75.8220 153° Southeast  Level Estimated
Fri 02:55:00 PM 41.6134 -75.8024 161° South  Level Estimated
Fri 02:56:00 PM 41.5543 -75.7820 166° South  Level FlightAware Approximate
Fri 02:57:00 PM 41.4952 -75.7617 166° South  Level FlightAware Approximate
Fri 02:58:00 PM 41.4360 -75.7422 162° South  Level Estimated
Fri 02:59:00 PM 41.3776 -75.7186 163° South  Level FlightAware Approximate
Fri 03:00:00 PM 41.3192 -75.6949 163° South  Level FlightAware Approximate
Fri 03:01:00 PM 41.2609 -75.6714 163° South  Level FlightAware Approximate
Fri 03:02:00 PM 41.2015 -75.6526 159° South  Level Estimated
Fri 03:03:00 PM 41.1422 -75.6339 163° South  Level Estimated
Fri 03:04:00 PM 41.0842 -75.6087 162° South  Level FlightAware Approximate
Fri 03:05:00 PM 41.0262 -75.5835 162° South  Level FlightAware Approximate
Fri 03:06:00 PM 40.9682 -75.5584 162° South  Level FlightAware Approximate
Fri 03:07:00 PM 40.9087 -75.5409 190° South  Level Estimated
Fri 03:08:00 PM 40.8478 -75.5348 176° South  Level FlightAware Approximate
Fri 03:09:00 PM 40.7870 -75.5286 176° South  Level FlightAware Approximate
Fri 03:10:00 PM 40.7262 -75.5226 176° South  Level FlightAware Approximate
Fri 03:11:00 PM 40.6670 -75.5028 187° South  Level Estimated
Fri 03:12:00 PM 40.6061 -75.5060 182° South  Level FlightAware Approximate
Fri 03:13:00 PM 40.5473 -75.4845 190° South  Level Estimated
Fri 03:14:00 PM 40.4871 -75.4978 190° South  Level FlightAware Approximate
Fri 03:15:00 PM 40.4290 -75.4733 180° South  Level Estimated
Fri 03:15:27 PM 40.6167 -75.4833 159° South 238 274 6,900  Level Philadelphia TRACON
Fri 03:15:51 PM 40.6000 -75.4833 180° South 237 273 6,900  Level Philadelphia TRACON
Fri 03:16:00 PM 40.3629 -75.4455 143° Southeast  Level Estimated
Fri 03:16:46 PM 40.5500 -75.5000 194° South 235 270 6,900  Level Philadelphia TRACON
Fri 03:17:00 PM 40.2934 -75.4467 181° South  Level FlightAware Approximate
Fri 03:17:46 PM 40.4833 -75.5167 191° South 238 274 6,900  Level Philadelphia TRACON
Fri 03:18:00 PM 40.2284 -75.4147 143° Southeast  Level Estimated
Fri 03:18:46 PM 40.4167 -75.5167 180° South 233 268 6,900  Level Philadelphia TRACON
Fri 03:19:00 PM 40.1633 -75.3828 180° South  Level Estimated
Fri 03:19:46 PM 40.3500 -75.5000 169° South 226 260 6,900  Level Philadelphia TRACON
Fri 03:20:00 PM 40.1101 -75.3568 159° South  Level Estimated
Fri 03:20:46 PM 40.2833 -75.5000 180° South 223 257 6,900  Level Philadelphia TRACON
Fri 03:21:46 PM 40.2333 -75.4833 166° South 223 257 7,000 48 Climbing Philadelphia TRACON
Fri 03:22:52 PM 40.1500 -75.4833 180° South 227 261 7,000  Level Philadelphia TRACON
Fri 03:23:52 PM 40.1000 -75.4667 166° South 231 266 7,000 -53 Level Philadelphia TRACON
Fri 03:24:46 PM 40.0333 -75.4667 180° South 230 265 6,900 -500 Descending Philadelphia TRACON
Fri 03:25:52 PM 39.9667 -75.4667 180° South 272 313 6,000 -714 Descending Philadelphia TRACON
Fri 03:26:52 PM 39.9000 -75.5167 210° Southwest 247 284 5,400 -850 Descending Philadelphia TRACON
Fri 03:27:52 PM 39.8333 -75.5167 180° South 237 273 4,300 -1,150 Descending Philadelphia TRACON
Fri 03:28:52 PM 39.8000 -75.4833 142° Southeast 177 204 3,100 -1,150 Descending Philadelphia TRACON
Fri 03:29:52 PM 39.8333 -75.4333 49° Northeast 163 188 2,000 -694 Descending Philadelphia TRACON
Fri 03:30:53 PM 39.8333 -75.3833 90° East 142 163 1,700 -446 Descending Philadelphia TRACON
Fri 03:31:53 PM 39.8500 -75.3500 57° Northeast 90 104 1,100 -550 Descending Philadelphia TRACON
Fri 03:32:53 PM 39.8500 -75.3167 90° East 98 113 600 -474 Descending Philadelphia TRACON
Fri 03:33:47 PM 39.8667 -75.2833 57° Northeast 97 112 200 -444 Descending Philadelphia TRACON

Login

Don't have an account? Register now (free) for customized features, flight alerts, and more!